createdAt,value
2019-03-22T00:00:44.477Z,119.50
2019-03-22T00:01:44.496Z,101.70
2019-03-22T00:02:44.439Z,95.50
2019-03-22T00:03:44.434Z,92.10
2019-03-22T00:04:44.426Z,117.10
2019-03-22T00:05:44.407Z,95.50
2019-03-22T00:06:44.401Z,73.80
2019-03-22T00:07:44.392Z,87.30
2019-03-22T00:08:44.376Z,101.50
2019-03-22T00:09:44.376Z,103.40
2019-03-22T00:10:44.348Z,95.70
2019-03-22T00:11:44.468Z,85.20
2019-03-22T00:12:44.325Z,118.40
2019-03-22T00:13:44.323Z,64.50
2019-03-22T00:14:44.305Z,75.90
2019-03-22T00:15:44.293Z,110.30
2019-03-22T00:16:44.282Z,86.70
2019-03-22T00:17:44.281Z,90.20
2019-03-22T00:18:44.258Z,113.60
2019-03-22T00:19:44.253Z,117.20
2019-03-22T00:20:44.240Z,149.70
2019-03-22T00:21:44.231Z,203.10
2019-03-22T00:22:44.219Z,208.80
2019-03-22T00:23:44.218Z,135.30
2019-03-22T00:24:44.221Z,96.60
2019-03-22T00:25:44.184Z,122.00
2019-03-22T00:26:44.179Z,142.20
2019-03-22T00:27:44.159Z,138.20
2019-03-22T00:28:44.196Z,110.50
2019-03-22T00:29:44.143Z,126.40
2019-03-22T00:30:44.136Z,122.30
2019-03-22T00:31:44.119Z,110.70
2019-03-22T00:32:44.105Z,140.80
2019-03-22T00:33:44.099Z,124.50
2019-03-22T00:34:44.113Z,110.60
2019-03-22T00:35:44.077Z,122.90
2019-03-22T00:36:44.061Z,109.80
2019-03-22T00:37:44.050Z,93.50
2019-03-22T00:38:44.045Z,92.80
2019-03-22T00:39:44.039Z,106.60
2019-03-22T00:40:44.018Z,107.60
2019-03-22T00:41:44.007Z,102.90
2019-03-22T00:42:44.011Z,93.70
2019-03-22T00:43:43.988Z,97.60
2019-03-22T00:44:43.983Z,99.20
2019-03-22T00:45:43.968Z,101.30
2019-03-22T00:46:43.957Z,91.00
2019-03-22T00:47:43.968Z,94.70
2019-03-22T00:48:43.935Z,83.80
2019-03-22T00:49:43.929Z,98.00
2019-03-22T00:50:43.913Z,95.90
2019-03-22T00:51:43.905Z,94.10
2019-03-22T00:52:43.887Z,86.30
2019-03-22T00:53:43.888Z,83.00
2019-03-22T00:54:43.872Z,74.50
2019-03-22T00:55:43.865Z,81.40
2019-03-22T00:56:43.855Z,84.80
2019-03-22T00:57:43.835Z,86.20
2019-03-22T00:58:43.835Z,86.20
2019-03-22T00:59:43.817Z,73.20
2019-03-22T01:00:43.859Z,78.50
2019-03-22T01:01:43.794Z,89.30
2019-03-22T01:02:43.777Z,91.70
2019-03-22T01:03:43.772Z,89.40
2019-03-22T01:04:43.763Z,73.20
2019-03-22T01:05:43.754Z,77.60
2019-03-22T01:06:43.751Z,85.00
2019-03-22T01:07:43.732Z,80.10
2019-03-22T01:08:43.718Z,90.70
2019-03-22T01:09:43.702Z,87.60
2019-03-22T01:10:43.712Z,91.20
2019-03-22T01:11:43.697Z,86.10
2019-03-22T01:12:43.669Z,82.50
2019-03-22T01:13:43.656Z,88.70
2019-03-22T01:14:43.648Z,80.50
2019-03-22T01:15:43.636Z,81.10
2019-03-22T01:16:43.642Z,87.50
2019-03-22T01:17:43.618Z,87.60
2019-03-22T01:18:43.602Z,86.60
2019-03-22T01:19:43.596Z,80.60
2019-03-22T01:20:43.585Z,80.20
2019-03-22T01:21:43.610Z,80.90
2019-03-22T01:22:43.570Z,74.20
2019-03-22T01:23:43.557Z,81.90
2019-03-22T01:24:43.542Z,61.60
2019-03-22T01:25:43.528Z,77.70
2019-03-22T01:26:43.517Z,78.10
2019-03-22T01:27:43.524Z,81.20
2019-03-22T01:28:43.506Z,82.10
2019-03-22T01:29:43.482Z,87.10
2019-03-22T01:30:43.472Z,84.60
2019-03-22T01:31:43.479Z,80.30
2019-03-22T01:32:43.459Z,77.20
2019-03-22T01:33:43.439Z,75.70
2019-03-22T01:34:43.433Z,71.60
2019-03-22T01:35:43.423Z,71.70
2019-03-22T01:36:43.430Z,65.20
2019-03-22T01:37:43.412Z,69.10
2019-03-22T01:38:43.406Z,67.40
2019-03-22T01:39:43.377Z,65.60
2019-03-22T01:40:43.382Z,64.90
2019-03-22T01:41:43.350Z,71.10
2019-03-22T01:42:43.339Z,71.00
2019-03-22T01:43:43.451Z,67.70
2019-03-22T01:44:43.322Z,67.60
2019-03-22T01:45:43.315Z,69.20
2019-03-22T01:46:43.303Z,75.60
2019-03-22T01:47:43.290Z,70.60
2019-03-22T01:48:43.279Z,71.50
2019-03-22T01:49:43.281Z,67.10
2019-03-22T01:50:43.257Z,57.20
2019-03-22T01:51:43.251Z,56.50
2019-03-22T01:52:43.232Z,58.90
2019-03-22T01:53:43.215Z,58.80
2019-03-22T01:54:43.213Z,64.30
2019-03-22T01:55:43.196Z,64.00
2019-03-22T01:56:43.191Z,65.10
2019-03-22T01:57:52.416Z,62.90
2019-03-22T01:58:44.156Z,51.40
2019-03-22T01:59:43.205Z,56.70
2019-03-22T02:00:43.143Z,59.10
2019-03-22T02:01:43.131Z,51.50
2019-03-22T02:02:43.120Z,56.90
2019-03-22T02:03:43.101Z,56.50
2019-03-22T02:04:43.091Z,59.40
2019-03-22T02:05:43.193Z,62.60
2019-03-22T02:06:43.070Z,62.00
2019-03-22T02:07:43.069Z,63.20
2019-03-22T02:08:43.051Z,63.20
2019-03-22T02:09:43.038Z,69.30
2019-03-22T02:10:43.024Z,55.30
2019-03-22T02:11:43.025Z,65.20
2019-03-22T02:12:43.013Z,68.10
2019-03-22T02:13:42.994Z,53.80
2019-03-22T02:14:42.978Z,63.90
2019-03-22T02:15:42.971Z,62.20
2019-03-22T02:16:42.966Z,64.90
2019-03-22T02:17:42.951Z,63.90
2019-03-22T02:18:42.934Z,61.40
2019-03-22T02:19:42.943Z,56.60
2019-03-22T02:20:42.910Z,54.50
2019-03-22T02:21:42.933Z,59.10
2019-03-22T02:22:42.913Z,56.60
2019-03-22T02:23:42.882Z,57.00
2019-03-22T02:24:42.874Z,51.50
2019-03-22T02:25:42.856Z,59.40
2019-03-22T02:26:42.850Z,62.30
2019-03-22T02:27:42.845Z,58.10
2019-03-22T02:28:42.828Z,59.10
2019-03-22T02:29:44.480Z,59.40
2019-03-22T02:30:42.820Z,59.80
2019-03-22T02:31:42.799Z,53.10
2019-03-22T02:32:42.816Z,46.80
2019-03-22T02:33:42.770Z,52.40
2019-03-22T02:34:42.778Z,53.90
2019-03-22T02:35:42.768Z,53.10
2019-03-22T02:36:42.741Z,51.40
2019-03-22T02:37:42.723Z,51.30
2019-03-22T02:38:42.722Z,51.80
2019-03-22T02:39:42.805Z,43.40
2019-03-22T02:40:42.747Z,48.20
2019-03-22T02:41:42.687Z,49.70
2019-03-22T02:42:42.668Z,53.90
2019-03-22T02:43:42.678Z,56.70
2019-03-22T02:44:42.646Z,56.40
2019-03-22T02:45:42.643Z,43.60
2019-03-22T02:46:42.632Z,47.40
2019-03-22T02:47:42.657Z,44.80
2019-03-22T02:48:42.633Z,52.50
2019-03-22T02:49:42.590Z,51.00
2019-03-22T02:50:42.579Z,59.30
2019-03-22T02:51:42.570Z,56.40
2019-03-22T02:52:42.563Z,53.90
2019-03-22T02:53:42.561Z,54.90
2019-03-22T02:54:42.535Z,55.90
2019-03-22T02:55:42.562Z,65.30
2019-03-22T02:56:42.521Z,56.60
2019-03-22T02:57:42.515Z,57.10
2019-03-22T02:58:42.598Z,58.60
2019-03-22T02:59:42.485Z,60.40
2019-03-22T03:00:42.479Z,63.10
2019-03-22T03:01:42.464Z,59.30
2019-03-22T03:02:42.451Z,59.90
2019-03-22T03:03:42.438Z,60.70
2019-03-22T03:04:42.449Z,59.60
2019-03-22T03:05:42.422Z,57.30
2019-03-22T03:06:42.412Z,60.00
2019-03-22T03:07:42.390Z,51.70
2019-03-22T03:08:42.383Z,56.10
2019-03-22T03:09:42.373Z,50.40
2019-03-22T03:10:42.382Z,52.40
2019-03-22T03:11:42.377Z,54.20
2019-03-22T03:12:42.346Z,55.20
2019-03-22T03:13:42.331Z,49.00
2019-03-22T03:14:42.319Z,49.70
2019-03-22T03:15:42.317Z,51.00
2019-03-22T03:16:42.315Z,48.40
2019-03-22T03:17:42.291Z,49.80
2019-03-22T03:18:42.279Z,50.50
2019-03-22T03:19:42.261Z,48.00
2019-03-22T03:20:42.259Z,49.70
2019-03-22T03:21:42.253Z,47.90
2019-03-22T03:22:42.240Z,57.70
2019-03-22T03:23:42.219Z,59.60
2019-03-22T03:24:42.212Z,52.50
2019-03-22T03:25:42.231Z,53.40
2019-03-22T03:26:42.193Z,60.10
2019-03-22T03:27:42.182Z,56.40
2019-03-22T03:28:42.159Z,54.70
2019-03-22T03:29:42.153Z,52.70
2019-03-22T03:30:42.150Z,53.40
2019-03-22T03:31:42.128Z,55.80
2019-03-22T03:32:42.117Z,62.00
2019-03-22T03:33:42.106Z,55.30
2019-03-22T03:34:42.103Z,59.40
2019-03-22T03:35:42.087Z,54.80
2019-03-22T03:36:42.108Z,53.40
2019-03-22T03:37:42.067Z,53.40
2019-03-22T03:38:42.057Z,47.70
2019-03-22T03:39:42.043Z,50.50
2019-03-22T03:40:42.029Z,53.40
2019-03-22T03:41:42.030Z,52.10
2019-03-22T03:42:42.053Z,52.60
2019-03-22T03:43:42.001Z,54.50
2019-03-22T03:44:41.984Z,52.50
2019-03-22T03:45:41.990Z,54.00
2019-03-22T03:46:42.043Z,51.30
2019-03-22T03:47:41.971Z,50.00
2019-03-22T03:48:41.966Z,53.40
2019-03-22T03:49:41.930Z,49.30
2019-03-22T03:50:41.930Z,49.50
2019-03-22T03:51:41.926Z,51.30
2019-03-22T03:52:42.030Z,48.70
2019-03-22T03:53:41.898Z,49.10
2019-03-22T03:54:41.872Z,49.30
2019-03-22T03:55:41.869Z,49.80
2019-03-22T03:56:41.850Z,48.50
2019-03-22T03:57:41.980Z,51.60
2019-03-22T03:58:52.310Z,50.80
2019-03-22T03:59:42.981Z,48.30
2019-03-22T04:00:41.811Z,42.90
2019-03-22T04:01:41.936Z,44.80
2019-03-22T04:02:41.805Z,49.20
2019-03-22T04:03:41.819Z,52.30
2019-03-22T04:04:41.767Z,56.10
2019-03-22T04:05:41.762Z,50.70
2019-03-22T04:06:41.745Z,50.90
2019-03-22T04:07:41.733Z,50.40
2019-03-22T04:08:41.731Z,52.10
2019-03-22T04:09:41.718Z,52.60
2019-03-22T04:10:41.713Z,52.60
2019-03-22T04:11:41.693Z,53.40
2019-03-22T04:12:41.681Z,51.20
2019-03-22T04:13:41.670Z,50.60
2019-03-22T04:14:41.668Z,53.10
2019-03-22T04:15:41.647Z,52.20
2019-03-22T04:16:41.627Z,53.00
2019-03-22T04:17:41.628Z,55.20
2019-03-22T04:18:41.606Z,51.80
2019-03-22T04:19:41.608Z,51.80
2019-03-22T04:20:41.604Z,52.50
2019-03-22T04:21:41.573Z,54.70
2019-03-22T04:22:41.561Z,54.00
2019-03-22T04:23:41.569Z,55.10
2019-03-22T04:24:41.560Z,55.70
2019-03-22T04:25:41.538Z,53.80
2019-03-22T04:26:41.518Z,53.40
2019-03-22T04:27:41.516Z,52.30
2019-03-22T04:28:41.502Z,55.60
2019-03-22T04:29:41.490Z,55.80
2019-03-22T04:30:41.503Z,55.10
2019-03-22T04:31:41.473Z,53.20
2019-03-22T04:32:41.459Z,53.10
2019-03-22T04:33:41.495Z,53.40
2019-03-22T04:34:41.427Z,54.50
2019-03-22T04:35:41.467Z,53.00
2019-03-22T04:36:41.418Z,52.20
2019-03-22T04:37:41.399Z,54.00
2019-03-22T04:38:41.392Z,54.50
2019-03-22T04:39:41.382Z,54.60
2019-03-22T04:40:41.370Z,54.30
2019-03-22T04:41:41.424Z,55.30
2019-03-22T04:42:41.344Z,53.70
2019-03-22T04:43:41.333Z,52.50
2019-03-22T04:44:41.316Z,54.70
2019-03-22T04:45:41.315Z,55.80
2019-03-22T04:46:41.342Z,51.20
2019-03-22T04:47:41.283Z,54.00
2019-03-22T04:48:41.273Z,53.90
2019-03-22T04:49:41.264Z,54.00
2019-03-22T04:50:41.255Z,53.80
2019-03-22T04:51:41.245Z,54.50
2019-03-22T04:52:41.243Z,54.50
2019-03-22T04:53:41.228Z,56.10
2019-03-22T04:54:41.211Z,62.30
2019-03-22T04:55:41.201Z,53.80
2019-03-22T04:56:41.188Z,56.50
2019-03-22T04:57:41.180Z,56.30
2019-03-22T04:58:41.207Z,54.90
2019-03-22T04:59:41.164Z,54.00
2019-03-22T05:00:41.149Z,55.40
2019-03-22T05:01:41.128Z,55.50
2019-03-22T05:02:41.125Z,58.90
2019-03-22T05:03:41.121Z,58.50
2019-03-22T05:04:41.095Z,60.00
2019-03-22T05:05:41.085Z,57.20
2019-03-22T05:06:41.072Z,58.90
2019-03-22T05:07:41.074Z,61.30
2019-03-22T05:08:41.064Z,62.60
2019-03-22T05:09:41.056Z,60.30
2019-03-22T05:10:41.034Z,57.00
2019-03-22T05:11:41.016Z,59.00
2019-03-22T05:12:41.043Z,57.60
2019-03-22T05:13:40.993Z,58.30
2019-03-22T05:14:40.991Z,55.70
2019-03-22T05:15:40.972Z,60.50
2019-03-22T05:16:40.965Z,58.40
2019-03-22T05:17:40.951Z,61.40
2019-03-22T05:18:40.952Z,60.70
2019-03-22T05:19:40.929Z,58.40
2019-03-22T05:20:40.916Z,54.90
2019-03-22T05:21:40.910Z,56.20
2019-03-22T05:22:40.911Z,58.80
2019-03-22T05:23:40.925Z,56.30
2019-03-22T05:24:40.875Z,59.00
2019-03-22T05:25:40.867Z,62.30
2019-03-22T05:26:40.850Z,56.70
2019-03-22T05:27:40.844Z,62.20
2019-03-22T05:28:40.858Z,61.70
2019-03-22T05:29:40.828Z,57.70
2019-03-22T05:30:40.814Z,61.90
2019-03-22T05:31:40.793Z,64.90
2019-03-22T05:32:40.783Z,65.80
2019-03-22T05:33:40.778Z,60.00
2019-03-22T05:34:40.783Z,59.80
2019-03-22T05:35:40.755Z,65.00
2019-03-22T05:36:40.740Z,63.00
2019-03-22T05:37:40.732Z,63.60
2019-03-22T05:38:40.715Z,62.70
2019-03-22T05:39:40.749Z,62.90
2019-03-22T05:40:40.695Z,64.00
2019-03-22T05:41:40.691Z,62.70
2019-03-22T05:42:40.674Z,65.70
2019-03-22T05:43:40.669Z,62.30
2019-03-22T05:44:40.654Z,60.00
2019-03-22T05:45:40.644Z,57.40
2019-03-22T05:46:40.642Z,56.60
2019-03-22T05:47:40.616Z,61.80
2019-03-22T05:48:40.610Z,54.90
2019-03-22T05:49:40.593Z,55.20
2019-03-22T05:50:40.585Z,56.50
2019-03-22T05:51:40.586Z,58.50
2019-03-22T05:52:40.568Z,58.10
2019-03-22T05:53:40.556Z,59.80
2019-03-22T05:54:40.542Z,63.10
2019-03-22T05:55:40.569Z,60.60
2019-03-22T05:56:40.517Z,60.00
2019-03-22T05:57:40.510Z,62.20
2019-03-22T05:58:40.500Z,59.10
2019-03-22T05:59:42.849Z,61.10
2019-03-22T06:00:40.472Z,61.30
2019-03-22T06:01:40.464Z,64.20
2019-03-22T06:02:40.464Z,63.20
2019-03-22T06:03:40.445Z,63.60
2019-03-22T06:04:40.430Z,63.30
2019-03-22T06:05:40.420Z,62.80
2019-03-22T06:06:40.415Z,62.20
2019-03-22T06:07:40.402Z,60.60
2019-03-22T06:08:40.390Z,61.90
2019-03-22T06:09:40.407Z,61.00
2019-03-22T06:10:40.383Z,60.90
2019-03-22T06:11:40.389Z,54.10
2019-03-22T06:12:40.339Z,57.90
2019-03-22T06:13:40.336Z,60.70
2019-03-22T06:14:40.329Z,61.90
2019-03-22T06:15:40.309Z,60.30
2019-03-22T06:16:40.305Z,60.00
2019-03-22T06:17:51.282Z,54.50
2019-03-22T06:18:41.275Z,55.20
2019-03-22T06:19:40.267Z,57.80
2019-03-22T06:20:40.256Z,56.70
2019-03-22T06:21:40.256Z,55.20
2019-03-22T06:22:40.270Z,57.30
2019-03-22T06:23:40.220Z,58.50
2019-03-22T06:24:40.213Z,58.10
2019-03-22T06:25:40.204Z,60.10
2019-03-22T06:26:40.186Z,60.80
2019-03-22T06:27:40.198Z,60.00
2019-03-22T06:28:40.165Z,56.40
2019-03-22T06:29:40.161Z,56.00
2019-03-22T06:30:40.146Z,58.30
2019-03-22T06:31:40.138Z,53.00
2019-03-22T06:32:40.119Z,55.20
2019-03-22T06:33:40.144Z,53.00
2019-03-22T06:34:40.101Z,54.40
2019-03-22T06:35:40.094Z,58.50
2019-03-22T06:36:40.080Z,57.40
2019-03-22T06:37:40.063Z,55.70
2019-03-22T06:38:40.057Z,55.60
2019-03-22T06:39:40.051Z,56.90
2019-03-22T06:40:40.030Z,58.00
2019-03-22T06:41:40.024Z,59.40
2019-03-22T06:42:40.009Z,58.60
2019-03-22T06:43:40.009Z,57.40
2019-03-22T06:44:39.997Z,56.90
2019-03-22T06:45:39.988Z,57.10
2019-03-22T06:46:39.968Z,58.40
2019-03-22T06:47:39.955Z,57.80
2019-03-22T06:48:39.950Z,57.40
2019-03-22T06:49:39.971Z,58.20
2019-03-22T06:50:39.929Z,58.20
2019-03-22T06:51:39.912Z,57.60
2019-03-22T06:52:39.908Z,60.10
2019-03-22T06:53:39.893Z,59.30
2019-03-22T06:54:39.885Z,57.20
2019-03-22T06:55:39.876Z,56.70
2019-03-22T06:56:39.857Z,55.80
2019-03-22T06:57:39.845Z,54.10
2019-03-22T06:58:39.848Z,56.90
2019-03-22T06:59:39.834Z,55.70
2019-03-22T07:00:39.840Z,54.70
2019-03-22T07:01:39.808Z,54.40
2019-03-22T07:02:39.796Z,52.90
2019-03-22T07:03:39.786Z,53.00
2019-03-22T07:04:39.776Z,52.50
2019-03-22T07:05:39.761Z,51.90
2019-03-22T07:06:39.752Z,52.60
2019-03-22T07:07:39.741Z,54.90
2019-03-22T07:08:39.733Z,55.70
2019-03-22T07:09:39.721Z,53.80
2019-03-22T07:10:39.712Z,51.90
2019-03-22T07:11:41.817Z,49.40
2019-03-22T07:12:39.690Z,51.20
2019-03-22T07:13:39.687Z,50.20
2019-03-22T07:14:39.669Z,50.80
2019-03-22T07:15:39.655Z,49.80
2019-03-22T07:16:39.654Z,52.10
2019-03-22T07:17:39.641Z,51.50
2019-03-22T07:18:39.624Z,50.20
2019-03-22T07:19:39.608Z,48.90
2019-03-22T07:20:39.596Z,54.10
2019-03-22T07:21:39.616Z,53.00
2019-03-22T07:22:39.581Z,50.00
2019-03-22T07:23:39.572Z,49.80
2019-03-22T07:24:39.558Z,51.80
2019-03-22T07:25:39.544Z,51.10
2019-03-22T07:26:39.539Z,50.30
2019-03-22T07:27:39.538Z,49.30
2019-03-22T07:28:39.518Z,49.90
2019-03-22T07:29:39.502Z,52.50
2019-03-22T07:30:39.490Z,48.70
2019-03-22T07:31:39.485Z,50.10
2019-03-22T07:32:39.486Z,47.20
2019-03-22T07:33:39.463Z,49.10
2019-03-22T07:34:39.472Z,50.50
2019-03-22T07:35:39.434Z,47.80
2019-03-22T07:36:39.426Z,47.20
2019-03-22T07:37:39.428Z,46.50
2019-03-22T07:38:39.402Z,48.60
2019-03-22T07:39:39.398Z,49.20
2019-03-22T07:40:39.394Z,48.50
2019-03-22T07:41:39.369Z,46.70
2019-03-22T07:42:39.382Z,47.60
2019-03-22T07:43:39.355Z,48.50
2019-03-22T07:44:39.349Z,47.40
2019-03-22T07:45:39.329Z,47.30
2019-03-22T07:46:39.321Z,46.60
2019-03-22T07:47:39.310Z,46.40
2019-03-22T07:48:39.295Z,46.70
2019-03-22T07:49:39.286Z,46.80
2019-03-22T07:50:39.279Z,44.20
2019-03-22T07:51:39.265Z,45.30
2019-03-22T07:52:39.249Z,43.00
2019-03-22T07:53:39.249Z,44.60
2019-03-22T07:54:39.342Z,45.10
2019-03-22T07:55:39.222Z,42.80
2019-03-22T07:56:39.207Z,43.10
2019-03-22T07:57:39.221Z,45.00
2019-03-22T07:58:39.185Z,43.40
2019-03-22T07:59:39.189Z,45.10
2019-03-22T08:00:39.168Z,43.60
2019-03-22T08:01:39.195Z,43.30
2019-03-22T08:02:39.145Z,45.30
2019-03-22T08:03:39.134Z,44.30
2019-03-22T08:04:39.122Z,44.90
2019-03-22T08:05:50.549Z,45.70
2019-03-22T08:06:40.126Z,43.50
2019-03-22T08:07:39.088Z,43.00
2019-03-22T08:08:39.080Z,42.50
2019-03-22T08:09:39.084Z,42.70
2019-03-22T08:10:39.082Z,44.70
2019-03-22T08:11:39.045Z,42.50
2019-03-22T08:12:39.031Z,44.10
2019-03-22T08:13:39.014Z,43.50
2019-03-22T08:14:39.010Z,41.20
2019-03-22T08:15:39.136Z,41.70
2019-03-22T08:16:39.011Z,43.10
2019-03-22T08:17:38.988Z,41.40
2019-03-22T08:18:38.965Z,43.80
2019-03-22T08:19:38.951Z,42.20
2019-03-22T08:20:39.103Z,43.10
2019-03-22T08:21:38.934Z,43.30
2019-03-22T08:22:38.929Z,44.40
2019-03-22T08:23:38.903Z,44.20
2019-03-22T08:24:38.892Z,43.80
2019-03-22T08:25:38.914Z,42.00
2019-03-22T08:26:38.908Z,41.20
2019-03-22T08:27:38.853Z,40.00
2019-03-22T08:28:38.874Z,40.70
2019-03-22T08:29:38.833Z,40.10
2019-03-22T08:30:43.298Z,40.80
2019-03-22T08:31:38.814Z,41.10
2019-03-22T08:32:38.803Z,40.90
2019-03-22T08:33:38.845Z,42.50
2019-03-22T08:34:38.776Z,43.20
2019-03-22T08:35:38.774Z,43.10
2019-03-22T08:36:38.789Z,42.60
2019-03-22T08:37:38.790Z,42.20
2019-03-22T08:38:38.731Z,43.60
2019-03-22T08:39:38.726Z,43.70
2019-03-22T08:40:38.751Z,42.80
2019-03-22T08:41:38.691Z,42.90
2019-03-22T08:42:38.712Z,41.90
2019-03-22T08:43:38.721Z,41.20
2019-03-22T08:44:38.674Z,40.50
2019-03-22T08:45:38.730Z,40.80
2019-03-22T08:46:38.659Z,39.20
2019-03-22T08:47:38.671Z,40.60
2019-03-22T08:48:38.630Z,40.80
2019-03-22T08:49:38.752Z,40.70
2019-03-22T08:50:38.613Z,40.00
2019-03-22T08:51:38.621Z,40.80
2019-03-22T08:52:38.605Z,41.40
2019-03-22T08:53:38.580Z,41.10
2019-03-22T08:54:38.617Z,40.60
2019-03-22T08:55:38.540Z,42.20
2019-03-22T08:56:38.526Z,41.40
2019-03-22T08:57:38.518Z,40.60
2019-03-22T08:58:38.498Z,41.60
2019-03-22T08:59:38.519Z,42.70
2019-03-22T09:00:39.818Z,42.50
2019-03-22T09:01:38.465Z,40.50
2019-03-22T09:02:38.473Z,40.90
2019-03-22T09:03:38.445Z,43.30
2019-03-22T09:04:38.439Z,43.30
2019-03-22T09:05:38.458Z,41.80
2019-03-22T09:06:38.415Z,42.20
2019-03-22T09:07:38.404Z,42.80
2019-03-22T09:08:38.393Z,41.30
2019-03-22T09:09:41.635Z,41.40
2019-03-22T09:10:38.443Z,41.90
2019-03-22T09:11:38.397Z,45.40
2019-03-22T09:12:38.347Z,42.70
2019-03-22T09:13:38.327Z,42.40
2019-03-22T09:14:38.326Z,41.90
2019-03-22T09:15:41.942Z,42.40
2019-03-22T09:16:38.305Z,42.10
2019-03-22T09:17:38.283Z,43.10
2019-03-22T09:18:38.270Z,45.00
2019-03-22T09:19:38.292Z,46.60
2019-03-22T09:20:38.263Z,45.00
2019-03-22T09:21:38.260Z,45.90
2019-03-22T09:22:38.235Z,45.30
2019-03-22T09:23:38.237Z,44.90
2019-03-22T09:24:39.268Z,45.10
2019-03-22T09:25:38.207Z,45.60
2019-03-22T09:26:47.651Z,44.00
2019-03-22T09:27:39.189Z,41.70
2019-03-22T09:28:38.190Z,45.10
2019-03-22T09:29:38.185Z,43.80
2019-03-22T09:30:38.176Z,44.10
2019-03-22T09:31:38.178Z,42.80
2019-03-22T09:32:38.221Z,42.70
2019-03-22T09:33:38.102Z,40.20
2019-03-22T09:34:38.129Z,41.80
2019-03-22T09:35:38.090Z,41.10
2019-03-22T09:36:38.110Z,43.60
2019-03-22T09:37:38.084Z,41.40
2019-03-22T09:38:38.096Z,43.20
2019-03-22T09:39:38.087Z,42.10
2019-03-22T09:40:38.027Z,40.50
2019-03-22T09:41:38.051Z,39.80
2019-03-22T09:42:38.021Z,41.50
2019-03-22T09:43:37.985Z,40.50
2019-03-22T09:44:43.137Z,43.10
2019-03-22T09:45:38.965Z,43.90
2019-03-22T09:46:38.011Z,40.50
2019-03-22T09:47:37.972Z,41.00
2019-03-22T09:48:37.936Z,39.80
2019-03-22T09:49:37.921Z,38.00
2019-03-22T09:50:37.910Z,36.50
2019-03-22T09:51:37.923Z,35.80
2019-03-22T09:52:38.017Z,36.10
2019-03-22T09:53:37.917Z,36.20
2019-03-22T09:54:37.904Z,36.20
2019-03-22T09:55:37.876Z,37.30
2019-03-22T09:56:47.043Z,36.20
2019-03-22T09:57:38.824Z,37.70
2019-03-22T09:58:37.882Z,35.60
2019-03-22T09:59:37.807Z,36.50
2019-03-22T10:00:37.845Z,37.30
2019-03-22T10:01:37.785Z,37.70
2019-03-22T10:02:37.775Z,37.90
2019-03-22T10:03:37.798Z,37.40
2019-03-22T10:04:37.773Z,39.00
2019-03-22T10:05:37.736Z,37.40
2019-03-22T10:06:37.735Z,38.40
2019-03-22T10:07:37.754Z,38.60
2019-03-22T10:08:37.726Z,38.60
2019-03-22T10:09:37.703Z,39.30
2019-03-22T10:10:37.689Z,38.80
2019-03-22T10:11:37.689Z,38.50
2019-03-22T10:12:37.659Z,37.90
2019-03-22T10:13:37.649Z,37.70
2019-03-22T10:14:37.647Z,36.30
2019-03-22T10:15:37.649Z,37.80
2019-03-22T10:16:37.613Z,37.40
2019-03-22T10:17:37.686Z,36.70
2019-03-22T10:18:37.596Z,39.30
2019-03-22T10:19:37.618Z,38.00
2019-03-22T10:20:37.603Z,38.00
2019-03-22T10:21:37.569Z,40.10
2019-03-22T10:22:37.555Z,38.60
2019-03-22T10:23:37.609Z,39.00
2019-03-22T10:24:37.607Z,40.00
2019-03-22T10:25:37.510Z,39.70
2019-03-22T10:26:37.506Z,43.90
2019-03-22T10:27:37.753Z,43.30
2019-03-22T10:28:37.523Z,45.20
2019-03-22T10:29:37.479Z,42.60
2019-03-22T10:30:37.531Z,44.20
2019-03-22T10:31:37.954Z,42.10
2019-03-22T10:32:37.448Z,45.10
2019-03-22T10:33:37.480Z,46.00
2019-03-22T10:34:39.736Z,43.80
2019-03-22T10:35:37.405Z,44.90
2019-03-22T10:36:37.453Z,45.60
2019-03-22T10:37:37.387Z,47.10
2019-03-22T10:38:37.378Z,47.50
2019-03-22T10:39:37.355Z,46.00
2019-03-22T10:40:37.361Z,46.10
2019-03-22T10:41:37.329Z,47.50
2019-03-22T10:42:37.327Z,48.00
2019-03-22T10:43:37.311Z,46.90
2019-03-22T10:44:39.397Z,44.70
2019-03-22T10:45:37.293Z,44.70
2019-03-22T10:46:37.271Z,44.70
2019-03-22T10:47:37.276Z,45.70
2019-03-22T10:48:37.256Z,46.30
2019-03-22T10:49:37.291Z,44.30
2019-03-22T10:50:37.375Z,43.20
2019-03-22T10:51:37.237Z,45.70
2019-03-22T10:52:37.210Z,45.20
2019-03-22T10:53:37.230Z,46.40
2019-03-22T10:54:37.187Z,47.40
2019-03-22T10:55:37.174Z,47.70
2019-03-22T10:56:37.170Z,47.70
2019-03-22T10:57:40.054Z,47.40
2019-03-22T10:58:37.143Z,48.40
2019-03-22T10:59:37.134Z,47.10
2019-03-22T11:00:37.128Z,48.50
2019-03-22T11:01:48.244Z,44.70
2019-03-22T11:02:38.097Z,46.60
2019-03-22T11:03:37.257Z,45.70
2019-03-22T11:04:37.073Z,45.80
2019-03-22T11:05:37.080Z,44.90
2019-03-22T11:06:37.063Z,46.80
2019-03-22T11:07:37.055Z,44.80
2019-03-22T11:08:37.032Z,43.50
2019-03-22T11:09:37.021Z,42.10
2019-03-22T11:10:37.004Z,41.90
2019-03-22T11:11:37.005Z,41.60
2019-03-22T11:12:37.011Z,39.90
2019-03-22T11:13:36.978Z,38.60
2019-03-22T11:14:36.968Z,38.90
2019-03-22T12:04:35.490Z,43.90
2019-03-22T12:05:40.346Z,44.80
2019-03-22T12:06:36.451Z,41.90
2019-03-22T12:07:35.432Z,43.20
2019-03-22T12:08:35.459Z,42.80
2019-03-22T12:09:35.582Z,41.50
2019-03-22T12:10:35.444Z,40.00
2019-03-22T12:11:35.390Z,38.80
2019-03-22T12:12:35.383Z,40.30
2019-03-22T12:13:35.371Z,39.60
2019-03-22T12:14:35.376Z,40.90
2019-03-22T12:15:35.346Z,39.70
2019-03-22T12:16:35.335Z,39.70
2019-03-22T12:17:35.328Z,40.20
2019-03-22T12:18:35.325Z,40.70
2019-03-22T12:19:35.322Z,42.10
2019-03-22T12:20:35.294Z,41.30
2019-03-22T12:21:35.288Z,39.10
2019-03-22T12:22:35.294Z,40.90
2019-03-22T12:23:35.271Z,38.80
2019-03-22T12:24:35.251Z,42.80
2019-03-22T12:25:35.241Z,41.80
2019-03-22T12:26:35.225Z,42.80
2019-03-22T12:27:36.761Z,39.70
2019-03-22T12:28:35.236Z,41.60
2019-03-22T12:29:35.200Z,42.40
2019-03-22T12:30:35.188Z,41.80
2019-03-22T12:31:35.174Z,42.00
2019-03-22T12:32:35.166Z,40.60
2019-03-22T12:33:35.156Z,41.90
2019-03-22T12:34:35.247Z,41.50
2019-03-22T12:35:35.154Z,42.40
2019-03-22T12:36:35.128Z,42.30
2019-03-22T12:37:35.114Z,42.00
2019-03-22T12:38:35.099Z,40.50
2019-03-22T12:39:35.092Z,39.90
2019-03-22T12:40:35.096Z,39.70
2019-03-22T12:41:35.074Z,40.50
2019-03-22T12:42:35.064Z,39.40
2019-03-22T12:43:35.058Z,38.90
2019-03-22T12:44:35.040Z,38.40
2019-03-22T12:45:35.063Z,41.30
2019-03-22T12:46:35.018Z,40.10
2019-03-22T12:47:35.005Z,40.40
2019-03-22T12:48:34.994Z,39.30
2019-03-22T12:49:34.983Z,40.40
2019-03-22T12:50:34.988Z,39.80
2019-03-22T12:51:34.958Z,39.30
2019-03-22T12:52:34.944Z,38.30
2019-03-22T12:53:34.942Z,38.00
2019-03-22T12:54:34.926Z,38.30
2019-03-22T12:55:34.912Z,41.60
2019-03-22T12:56:34.920Z,37.60
2019-03-22T12:57:34.898Z,38.80
2019-03-22T12:58:34.883Z,37.50
2019-03-22T12:59:34.877Z,38.10
2019-03-22T13:00:34.853Z,38.70
2019-03-22T13:01:34.851Z,37.00
2019-03-22T13:02:42.054Z,38.30
2019-03-22T13:03:35.819Z,37.00
2019-03-22T13:04:34.807Z,38.80
2019-03-22T13:05:34.796Z,39.20
2019-03-22T13:06:34.824Z,39.10
2019-03-22T13:07:34.782Z,37.70
2019-03-22T13:08:34.768Z,39.60
2019-03-22T13:09:34.760Z,38.10
2019-03-22T13:10:34.745Z,37.90
2019-03-22T13:11:34.734Z,37.20
2019-03-22T13:12:34.729Z,35.90
2019-03-22T13:13:34.721Z,39.90
2019-03-22T13:14:34.697Z,37.50
2019-03-22T13:15:34.688Z,38.10
2019-03-22T13:16:34.677Z,38.40
2019-03-22T13:17:34.675Z,40.20
2019-03-22T13:18:34.670Z,39.20
2019-03-22T13:19:34.650Z,37.60
2019-03-22T13:20:34.637Z,38.20
2019-03-22T13:21:34.630Z,37.90
2019-03-22T13:22:34.616Z,37.00
2019-03-22T13:23:34.611Z,38.30
2019-03-22T13:24:34.605Z,37.70
2019-03-22T13:25:34.580Z,38.30
2019-03-22T13:26:34.576Z,38.20
2019-03-22T13:27:34.560Z,38.80
2019-03-22T13:28:34.619Z,39.00
2019-03-22T13:29:34.537Z,37.50
2019-03-22T13:30:34.542Z,37.50
2019-03-22T13:31:34.517Z,36.80
2019-03-22T13:32:34.503Z,37.50
2019-03-22T13:33:34.496Z,37.50
2019-03-22T13:34:34.523Z,37.00
2019-03-22T13:35:34.476Z,37.20
2019-03-22T13:36:34.460Z,35.40
2019-03-22T13:37:34.453Z,34.80
2019-03-22T13:38:34.443Z,34.70
2019-03-22T13:39:34.444Z,33.10
2019-03-22T13:40:34.421Z,33.60